Solon Mills, Illinois
Current Conditions -  °F | °C
As of 2:35 PM on Friday 28 Nov 2014 (Local Time) from KBUU Reporting Station
Scattered Clouds Scattered Clouds  
Wind Chill: 16°   Ceiling: Unl
Heat Index: 26°   Visibility: 10mi
Dew Point: 18°   Wind: 12mph
Humidity: 70%   Direction: 160°SSE
Pressure: 29.97"   Gusts: NA
Location:  42.44°N, 88.27°W
Report Text: KBUU 282035Z AUTO 16010KT 10SM SCT080 M03/M08 A2997 RMK AO2 T10321080
Loading
Personal Weather Stations






























Interactive Weather Map New forecast layout! Learn more

10-Day Weather Forecast

Advertisements
Track Severe Weather on mobile